Time;durP1;ratioP1;P1;durP2;ratioP2;P2;SDS_P1;SDS_P2;PMS_P1;PMS_P2;Temp;Humidity;BMP_temperature;BMP_pressure;BME280_temperature;BME280_humidity;BME280_pressure;Samples;Min_cycle;Max_cycle;Signal;HPM_P1;HPM_P2
2022/11/28 00:00:24;;;;;;;29.05;19.27;;;2.60;99.90;;;;;;5092681;28;20028;-49
2022/11/28 00:02:49;;;;;;;27.88;18.30;;;2.50;99.90;;;;;;5091280;28;20036;-49
2022/11/28 00:05:15;;;;;;;29.63;19.52;;;2.50;99.90;;;;;;5091657;28;20032;-50
2022/11/28 00:07:41;;;;;;;27.83;19.25;;;2.50;99.90;;;;;;5092804;28;20077;-51
2022/11/28 00:10:07;;;;;;;29.45;18.40;;;2.50;99.90;;;;;;5092648;28;20515;-50
2022/11/28 00:12:34;;;;;;;26.80;19.05;;;2.60;99.90;;;;;;5092373;28;20036;-50
2022/11/28 00:14:59;;;;;;;31.65;19.40;;;2.50;99.90;;;;;;5091977;28;20039;-51
2022/11/28 00:17:25;;;;;;;25.92;17.90;;;2.60;99.90;;;;;;5090724;28;20032;-50
2022/11/28 00:19:51;;;;;;;23.17;16.25;;;2.60;99.90;;;;;;5092224;28;20044;-52
2022/11/28 00:22:16;;;;;;;24.55;15.93;;;2.50;99.90;;;;;;5092461;28;20082;-50
2022/11/28 00:24:42;;;;;;;24.77;15.75;;;2.50;99.90;;;;;;5092105;28;20039;-50
2022/11/28 00:27:08;;;;;;;27.40;17.80;;;2.50;99.90;;;;;;5092528;28;20562;-51
2022/11/28 00:29:33;;;;;;;24.83;16.38;;;2.50;99.90;;;;;;5092094;28;20466;-49
2022/11/28 00:31:59;;;;;;;23.10;16.20;;;2.40;99.90;;;;;;5091970;28;20092;-50
2022/11/28 00:34:25;;;;;;;20.80;15.48;;;2.50;99.90;;;;;;5092310;28;20423;-50
2022/11/28 00:36:50;;;;;;;22.33;15.52;;;2.40;99.90;;;;;;5092026;28;20035;-50
2022/11/28 00:39:16;;;;;;;24.42;16.45;;;2.40;99.90;;;;;;5092112;28;20058;-52
2022/11/28 00:41:43;;;;;;;24.45;16.25;;;2.40;99.90;;;;;;5091789;28;20032;-50
2022/11/28 00:44:09;;;;;;;24.63;15.60;;;2.30;99.90;;;;;;5092094;28;20039;-50
2022/11/28 00:46:35;;;;;;;29.85;16.23;;;2.30;99.90;;;;;;5091888;28;20032;-50
2022/11/28 00:49:00;;;;;;;20.88;16.15;;;2.30;99.90;;;;;;5090581;28;20100;-49
2022/11/28 00:51:30;;;;;;;22.02;16.35;;;2.20;99.90;;;;;;5091690;28;20032;-50
2022/11/28 00:53:58;;;;;;;24.50;18.30;;;2.20;99.90;;;;;;5091639;28;20028;-49
2022/11/28 00:56:31;;;;;;;25.25;17.60;;;2.10;99.90;;;;;;5091794;28;20029;-50
2022/11/28 00:58:57;;;;;;;28.55;16.90;;;2.20;99.90;;;;;;5092017;28;20020;-51
2022/11/28 01:01:29;;;;;;;26.25;17.73;;;2.10;99.90;;;;;;5091501;28;20016;-51
2022/11/28 01:03:56;;;;;;;23.60;18.23;;;2.20;99.90;;;;;;5091522;28;20035;-50
2022/11/28 01:06:37;;;;;;;28.80;18.98;;;2.10;99.90;;;;;;5091036;28;20035;-51
2022/11/28 01:09:09;;;;;;;25.95;18.55;;;2.00;99.90;;;;;;5091760;28;20688;-50
2022/11/28 01:11:38;;;;;;;23.38;17.73;;;2.00;99.90;;;;;;5091755;28;20063;-52
2022/11/28 01:14:05;;;;;;;28.50;17.52;;;2.00;99.90;;;;;;5091680;28;20024;-49
2022/11/28 01:16:31;;;;;;;28.67;19.63;;;2.00;99.90;;;;;;5091419;28;20085;-51
2022/11/28 01:18:57;;;;;;;26.48;20.08;;;2.00;99.90;;;;;;5091547;28;20032;-51
2022/11/28 01:21:23;;;;;;;34.42;19.50;;;2.00;99.90;;;;;;5091350;28;20414;-50
2022/11/28 01:23:49;;;;;;;33.95;19.83;;;2.00;99.90;;;;;;5090994;28;20071;-50
2022/11/28 01:26:21;;;;;;;27.38;19.15;;;2.00;99.90;;;;;;5090136;28;20074;-50
2022/11/28 01:28:46;;;;;;;29.98;18.30;;;1.90;99.90;;;;;;5091277;28;20034;-51
2022/11/28 01:31:15;;;;;;;25.92;17.88;;;1.90;99.90;;;;;;5089882;28;20371;-50
2022/11/28 01:33:41;;;;;;;23.75;17.17;;;2.00;99.90;;;;;;5091320;28;20063;-54
2022/11/28 01:36:08;;;;;;;28.42;18.35;;;2.00;99.90;;;;;;5091215;28;20412;-49
2022/11/28 01:38:34;;;;;;;28.92;17.67;;;2.00;99.90;;;;;;5090204;28;20544;-50
2022/11/28 01:41:01;;;;;;;32.88;19.13;;;2.00;99.90;;;;;;5090063;28;20027;-51
2022/11/28 01:43:27;;;;;;;26.50;18.45;;;2.00;99.90;;;;;;5091373;28;20581;-49
2022/11/28 01:45:53;;;;;;;30.17;20.17;;;2.00;99.90;;;;;;5091547;28;20036;-50
2022/11/28 01:48:29;;;;;;;33.45;19.58;;;2.00;99.90;;;;;;5091417;28;20016;-50
2022/11/28 01:51:00;;;;;;;30.77;20.27;;;2.00;99.90;;;;;;5090960;28;20025;-51
2022/11/28 01:53:29;;;;;;;29.95;19.05;;;2.00;99.90;;;;;;5091209;28;20047;-50
2022/11/28 01:56:18;;;;;;;37.42;20.67;;;2.00;99.90;;;;;;5091159;28;20032;-49
2022/11/28 01:58:49;;;;;;;33.72;18.67;;;1.90;99.90;;;;;;5091039;28;20024;-50
2022/11/28 02:01:16;;;;;;;36.17;20.17;;;1.90;99.90;;;;;;5091483;28;20111;-51
2022/11/28 02:03:47;;;;;;;31.05;21.58;;;1.90;99.90;;;;;;5091062;28;20103;-51
2022/11/28 02:06:17;;;;;;;30.50;19.98;;;1.90;99.90;;;;;;5089899;28;20032;-50
2022/11/28 02:08:42;;;;;;;31.15;19.00;;;1.90;99.90;;;;;;5090754;28;20103;-50
2022/11/28 02:11:39;;;;;;;29.38;19.25;;;1.90;99.90;;;;;;5091361;28;20111;-50
2022/11/28 02:14:23;;;;;;;26.70;17.52;;;1.80;99.90;;;;;;5075648;28;20387;-50
2022/11/28 02:16:56;;;;;;;32.25;19.52;;;1.80;99.90;;;;;;5091305;28;20020;-50
2022/11/28 02:19:47;;;;;;;28.17;19.02;;;1.90;99.90;;;;;;5095077;28;20074;-50
2022/11/28 02:22:36;;;;;;;37.47;19.17;;;1.80;99.90;;;;;;5094879;28;20483;-51
2022/11/28 02:25:29;;;;;;;34.17;18.58;;;1.80;99.90;;;;;;5094943;28;20102;-50
2022/11/28 02:28:22;;;;;;;27.70;16.08;;;1.70;99.90;;;;;;5094402;28;20036;-49
2022/11/28 02:30:58;;;;;;;31.02;16.50;;;1.60;99.90;;;;;;5093585;28;20095;-51
2022/11/28 02:33:30;;;;;;;31.33;17.45;;;1.60;99.90;;;;;;5092232;28;20021;-51
2022/11/28 02:36:05;;;;;;;44.88;17.20;;;1.50;99.90;;;;;;5092474;28;20036;-49
2022/11/28 02:39:09;;;;;;;55.13;20.23;;;1.50;99.90;;;;;;5093168;28;20028;-49
2022/11/28 02:41:43;;;;;;;;;;;1.40;99.90;;;;;;5094021;28;20043;-51
2022/11/28 02:44:12;;;;;;;61.58;18.83;;;1.40;99.90;;;;;;5093740;28;20006;-52
2022/11/28 02:46:59;;;;;;;95.80;20.35;;;1.40;99.90;;;;;;5094392;28;20020;-49
2022/11/28 02:49:30;;;;;;;40.80;19.50;;;1.40;99.90;;;;;;5094217;28;20036;-51
2022/11/28 02:52:11;;;;;;;55.58;18.35;;;1.50;99.90;;;;;;5093769;28;20094;-51
2022/11/28 02:54:38;;;;;;;26.83;16.65;;;1.50;99.90;;;;;;5094475;28;20024;-50
2022/11/28 02:57:04;;;;;;;33.05;16.90;;;1.40;99.90;;;;;;5092447;28;20028;-50
2022/11/28 02:59:35;;;;;;;30.95;17.10;;;1.40;99.90;;;;;;5094216;28;20451;-49
2022/11/28 03:02:09;;;;;;;57.20;15.00;;;1.40;99.90;;;;;;5093674;28;20098;-49
2022/11/28 03:04:59;;;;;;;43.53;17.30;;;1.40;99.90;;;;;;5094132;28;20016;-51
2022/11/28 03:07:53;;;;;;;38.85;17.52;;;1.40;99.90;;;;;;5093925;28;20031;-50
2022/11/28 03:10:37;;;;;;;55.80;18.20;;;1.40;99.90;;;;;;5093650;28;20453;-50
2022/11/28 03:13:46;;;;;;;59.28;16.83;;;1.40;99.90;;;;;;5093960;28;20119;-51
2022/11/28 03:16:27;;;;;;;39.03;17.25;;;1.40;99.90;;;;;;5092757;28;20028;-50
2022/11/28 03:19:11;;;;;;;26.60;16.33;;;1.40;99.90;;;;;;5093415;28;20028;-50
2022/11/28 03:22:00;;;;;;;29.08;18.27;;;1.40;99.90;;;;;;5082022;28;20040;-51
2022/11/28 03:24:29;;;;;;;25.85;16.23;;;1.40;99.90;;;;;;5081149;28;20393;-50
2022/11/28 03:27:00;;;;;;;28.23;16.90;;;1.40;99.90;;;;;;5093316;28;20059;-50
2022/11/28 03:29:48;;;;;;;64.05;17.27;;;1.40;99.90;;;;;;5092849;28;20021;-51
2022/11/28 03:32:23;;;;;;;60.67;15.90;;;1.50;99.90;;;;;;5090770;28;20421;-50
2022/11/28 03:34:55;;;;;;;41.88;15.15;;;1.50;99.90;;;;;;5093062;28;20028;-52
2022/11/28 03:37:28;;;;;;;42.35;16.98;;;1.40;99.90;;;;;;5093416;28;20405;-48
2022/11/28 03:39:59;;;;;;;74.82;17.70;;;1.30;99.90;;;;;;5093011;28;20433;-52
2022/11/28 03:42:28;;;;;;;133.10;18.73;;;1.30;99.90;;;;;;5093583;28;20040;-50
2022/11/28 03:45:05;;;;;;;34.22;16.20;;;1.30;99.90;;;;;;5092903;28;20058;-50
2022/11/28 03:47:37;;;;;;;28.58;15.40;;;1.20;99.90;;;;;;5093075;28;20029;-50
2022/11/28 03:50:10;;;;;;;40.35;14.82;;;1.20;99.90;;;;;;5093066;28;20096;-50
2022/11/28 03:52:49;;;;;;;45.63;15.05;;;1.20;99.90;;;;;;5093104;28;20020;-51
2022/11/28 03:55:23;;;;;;;31.48;14.90;;;1.10;99.90;;;;;;5091931;28;20056;-51
2022/11/28 03:58:08;;;;;;;36.80;15.00;;;1.10;99.90;;;;;;5092844;28;20047;-51
2022/11/28 04:00:39;;;;;;;29.20;14.32;;;1.00;99.90;;;;;;5092603;28;20020;-51
2022/11/28 04:03:14;;;;;;;161.10;16.92;;;1.10;99.90;;;;;;5092923;28;20031;-51
2022/11/28 04:05:54;;;;;;;62.20;15.45;;;1.10;99.90;;;;;;5093080;28;20526;-52
2022/11/28 04:08:29;;;;;;;43.17;13.93;;;1.10;99.90;;;;;;5092704;28;20081;-49
2022/11/28 04:11:08;;;;;;;165.02;18.10;;;1.10;99.90;;;;;;5092580;28;20398;-54
2022/11/28 04:13:42;;;;;;;137.68;16.98;;;1.00;99.90;;;;;;5085317;28;20368;-50
2022/11/28 04:16:21;;;;;;;95.65;15.75;;;1.00;99.90;;;;;;5092271;28;20039;-49
2022/11/28 04:18:59;;;;;;;129.02;19.05;;;0.90;99.90;;;;;;5092354;28;20024;-51
2022/11/28 04:21:54;;;;;;;39.30;15.32;;;0.90;99.90;;;;;;5092684;28;20052;-50
2022/11/28 04:24:44;;;;;;;75.15;16.02;;;0.90;99.90;;;;;;5086659;28;20074;-52
2022/11/28 04:27:18;;;;;;;87.45;17.83;;;0.90;99.90;;;;;;5092471;28;20115;-50
2022/11/28 04:29:54;;;;;;;;;;;0.90;99.90;;;;;;5092550;28;20027;-50
2022/11/28 04:32:23;;;;;;;25.52;15.45;;;0.80;99.90;;;;;;5092297;28;19912;-51
2022/11/28 04:34:54;;;;;;;460.25;32.10;;;0.80;99.90;;;;;;5092367;28;20027;-50
2022/11/28 04:37:22;;;;;;;299.80;26.17;;;0.80;99.90;;;;;;5092326;28;20028;-52
2022/11/28 04:39:49;;;;;;;105.25;18.40;;;0.80;99.90;;;;;;5091867;28;20044;-51
2022/11/28 04:42:23;;;;;;;55.33;16.42;;;0.80;99.90;;;;;;5091566;28;20076;-50
2022/11/28 04:45:10;;;;;;;35.20;17.13;;;0.80;99.90;;;;;;5091547;28;20021;-49
2022/11/28 04:47:36;;;;;;;93.80;17.98;;;0.90;99.90;;;;;;5091937;28;20051;-51
2022/11/28 04:50:02;;;;;;;35.70;15.27;;;0.80;99.90;;;;;;5091657;28;20059;-51
2022/11/28 04:53:06;;;;;;;66.28;15.40;;;0.80;99.90;;;;;;5092188;28;20059;-51
2022/11/28 04:55:45;;;;;;;52.25;16.88;;;0.80;99.90;;;;;;5066763;28;20040;-52
2022/11/28 04:58:15;;;;;;;68.63;17.35;;;0.70;99.90;;;;;;5091670;28;20111;-53
2022/11/28 05:00:42;;;;;;;60.40;17.83;;;0.70;99.90;;;;;;5091591;28;20032;-50
2022/11/28 05:03:09;;;;;;;27.80;16.95;;;0.80;99.90;;;;;;5091951;28;20052;-51
2022/11/28 05:05:49;;;;;;;30.38;15.55;;;0.80;99.90;;;;;;5091955;28;20024;-53
2022/11/28 05:08:16;;;;;;;25.52;17.23;;;0.80;99.90;;;;;;5092063;28;20031;-50
2022/11/28 05:10:42;;;;;;;23.10;14.25;;;0.80;99.90;;;;;;5091886;28;20024;-52
2022/11/28 05:13:08;;;;;;;18.95;12.77;;;0.80;99.90;;;;;;5090306;28;20109;-53
2022/11/28 05:15:33;;;;;;;26.30;15.43;;;0.90;99.90;;;;;;5090989;28;20035;-50
2022/11/28 05:17:59;;;;;;;64.25;18.60;;;0.90;99.90;;;;;;5090231;28;20032;-51
2022/11/28 05:20:26;;;;;;;40.83;17.08;;;0.90;99.90;;;;;;5091660;28;20040;-51
2022/11/28 05:22:51;;;;;;;159.07;21.67;;;0.90;99.90;;;;;;5091610;28;20024;-51
2022/11/28 05:25:17;;;;;;;433.17;27.40;;;0.90;99.90;;;;;;5091206;28;20703;-50
2022/11/28 05:27:43;;;;;;;262.77;23.10;;;0.80;99.90;;;;;;5091381;28;20351;-49
2022/11/28 05:30:09;;;;;;;139.93;20.42;;;0.80;99.90;;;;;;5091740;28;20058;-50
2022/11/28 05:32:35;;;;;;;124.35;19.48;;;0.80;99.90;;;;;;5090602;28;20356;-52
2022/11/28 05:35:01;;;;;;;102.88;20.50;;;0.80;99.90;;;;;;5089839;28;20085;-51
2022/11/28 05:37:27;;;;;;;170.65;21.95;;;0.80;99.90;;;;;;5090297;28;20028;-50
2022/11/28 05:39:53;;;;;;;304.48;27.05;;;0.80;99.90;;;;;;5088944;28;20024;-50
2022/11/28 05:42:18;;;;;;;208.95;23.70;;;0.80;99.90;;;;;;5089010;28;20020;-51
2022/11/28 05:44:44;;;;;;;234.93;24.15;;;0.70;99.90;;;;;;5090187;28;20510;-49
2022/11/28 05:47:10;;;;;;;82.68;20.60;;;0.70;99.90;;;;;;5090696;28;20169;-52
2022/11/28 05:49:35;;;;;;;105.72;21.85;;;0.80;99.90;;;;;;5091490;28;20490;-50
2022/11/28 05:52:01;;;;;;;100.85;21.98;;;0.80;99.90;;;;;;5091153;28;20035;-50
2022/11/28 05:54:27;;;;;;;405.23;27.63;;;0.80;99.90;;;;;;5095594;28;20039;-52
2022/11/28 05:56:52;;;;;;;247.30;23.85;;;0.70;99.90;;;;;;5094387;28;20383;-51
2022/11/28 05:59:21;;;;;;;224.88;25.77;;;0.70;99.90;;;;;;5094630;28;20468;-49
2022/11/28 06:01:47;;;;;;;147.93;22.40;;;0.70;99.90;;;;;;5093845;28;20031;-50
2022/11/28 06:04:12;;;;;;;201.10;22.90;;;0.70;99.90;;;;;;5094149;28;20040;-51
2022/11/28 06:06:38;;;;;;;155.50;22.30;;;0.70;99.90;;;;;;5094043;28;20035;-52
2022/11/28 06:09:04;;;;;;;76.70;20.45;;;0.70;99.90;;;;;;5093943;28;20020;-51
2022/11/28 06:11:31;;;;;;;96.82;19.85;;;0.70;99.90;;;;;;5093585;28;20095;-50
2022/11/28 06:13:57;;;;;;;66.65;19.33;;;0.80;99.90;;;;;;5093822;28;20031;-52
2022/11/28 06:16:25;;;;;;;59.72;18.27;;;0.70;99.90;;;;;;5093867;28;20016;-51
2022/11/28 06:19:02;;;;;;;58.78;19.25;;;0.70;99.90;;;;;;5093736;28;20441;-51
2022/11/28 06:21:29;;;;;;;249.95;23.13;;;0.70;99.90;;;;;;5093576;28;20032;-54
2022/11/28 06:23:56;;;;;;;111.13;18.73;;;0.70;99.90;;;;;;5093543;28;20043;-50
2022/11/28 06:26:23;;;;;;;107.18;18.13;;;0.70;99.90;;;;;;5093450;28;20079;-50
2022/11/28 06:28:55;;;;;;;49.28;19.05;;;0.70;99.90;;;;;;5093592;28;20126;-50
2022/11/28 06:31:24;;;;;;;84.50;17.77;;;0.80;99.90;;;;;;5093572;28;20031;-52
2022/11/28 06:33:58;;;;;;;99.53;19.17;;;0.70;99.90;;;;;;5092195;28;20439;-50
2022/11/28 06:36:25;;;;;;;86.57;18.50;;;0.80;99.90;;;;;;5093254;28;20102;-51
2022/11/28 06:38:59;;;;;;;73.15;18.77;;;0.70;99.90;;;;;;5093389;28;20046;-50
2022/11/28 06:41:25;;;;;;;148.13;21.08;;;0.70;99.90;;;;;;5093407;28;20012;-50
2022/11/28 06:43:51;;;;;;;187.73;21.63;;;0.70;99.90;;;;;;5093301;28;20038;-52
2022/11/28 06:46:18;;;;;;;124.28;19.63;;;0.70;99.90;;;;;;5093322;28;20053;-55
2022/11/28 06:48:45;;;;;;;129.57;20.75;;;0.70;99.90;;;;;;5093196;28;20391;-50
2022/11/28 06:51:12;;;;;;;141.15;31.67;;;0.70;99.90;;;;;;5093237;28;20027;-50
2022/11/28 06:53:38;;;;;;;47.47;22.15;;;0.70;99.90;;;;;;5093066;28;20055;-49
2022/11/28 06:56:13;;;;;;;31.60;17.77;;;0.70;99.90;;;;;;5092983;28;20083;-52
2022/11/28 06:58:39;;;;;;;32.13;17.20;;;0.70;99.90;;;;;;5093291;28;20042;-50
2022/11/28 07:01:26;;;;;;;44.85;20.13;;;0.70;99.90;;;;;;5092944;28;20027;-51
2022/11/28 07:03:55;;;;;;;63.25;18.42;;;0.70;99.90;;;;;;5091367;28;20024;-50
2022/11/28 07:06:22;;;;;;;48.42;18.08;;;0.80;99.90;;;;;;5093065;28;20028;-51
2022/11/28 07:08:49;;;;;;;28.05;17.15;;;0.80;99.90;;;;;;5092762;28;20047;-50
2022/11/28 07:11:14;;;;;;;69.03;18.77;;;0.80;99.90;;;;;;5092861;28;20024;-51
2022/11/28 07:13:41;;;;;;;75.55;19.35;;;0.70;99.90;;;;;;5092705;28;20050;-49
2022/11/28 07:16:10;;;;;;;75.50;19.73;;;0.80;99.90;;;;;;5091455;28;20028;-51
2022/11/28 07:18:36;;;;;;;44.55;18.88;;;0.90;99.90;;;;;;5091398;28;20032;-50
2022/11/28 07:21:02;;;;;;;55.65;24.95;;;0.90;99.90;;;;;;5092320;28;20052;-50
2022/11/28 07:23:27;;;;;;;57.72;31.23;;;0.90;99.90;;;;;;5092883;28;20028;-50
2022/11/28 07:26:00;;;;;;;49.20;20.90;;;0.90;99.90;;;;;;5092570;28;20032;-49
2022/11/28 07:28:28;;;;;;;54.27;19.50;;;1.00;99.90;;;;;;5092400;28;20046;-51
2022/11/28 07:31:01;;;;;;;50.42;18.60;;;0.90;99.90;;;;;;5091122;28;20738;-51
2022/11/28 07:33:27;;;;;;;38.15;18.88;;;1.00;99.90;;;;;;5092409;28;20024;-50
2022/11/28 07:35:52;;;;;;;50.40;18.65;;;1.00;99.90;;;;;;5092347;28;20035;-51
2022/11/28 07:38:18;;;;;;;53.13;18.75;;;1.10;99.90;;;;;;5092263;28;20574;-50
2022/11/28 07:40:43;;;;;;;50.22;19.98;;;1.10;99.90;;;;;;5092032;28;20024;-50
2022/11/28 07:43:09;;;;;;;65.43;18.55;;;1.00;99.90;;;;;;5090816;28;20024;-49
2022/11/28 07:45:38;;;;;;;56.90;19.20;;;1.00;99.90;;;;;;5092261;28;20024;-49
2022/11/28 07:48:04;;;;;;;138.32;21.83;;;1.00;99.90;;;;;;5092037;28;20438;-51
2022/11/28 07:50:29;;;;;;;123.75;21.52;;;0.90;99.90;;;;;;5092250;28;20028;-49
2022/11/28 07:52:56;;;;;;;66.63;18.77;;;0.90;99.90;;;;;;5091837;28;20024;-50
2022/11/28 07:55:22;;;;;;;170.48;21.85;;;1.00;99.90;;;;;;5092012;28;20111;-50
2022/11/28 07:57:48;;;;;;;50.10;18.50;;;1.00;99.90;;;;;;5091840;28;20098;-51
2022/11/28 08:00:14;;;;;;;49.72;17.27;;;1.00;99.90;;;;;;5091812;28;20412;-49
2022/11/28 08:02:40;;;;;;;62.85;18.38;;;1.00;99.90;;;;;;5091815;28;20082;-50
2022/11/28 08:05:05;;;;;;;65.70;17.50;;;1.00;99.90;;;;;;5091833;28;20471;-49
2022/11/28 08:07:31;;;;;;;86.70;18.58;;;1.00;99.90;;;;;;5091658;28;20091;-50
2022/11/28 08:09:57;;;;;;;63.22;17.77;;;0.80;99.90;;;;;;5091708;28;20444;-50
2022/11/28 08:12:22;;;;;;;95.80;19.25;;;0.80;99.90;;;;;;5091675;28;20491;-49
2022/11/28 08:14:48;;;;;;;76.05;18.88;;;0.90;99.90;;;;;;5091181;28;20085;-52
2022/11/28 08:17:14;;;;;;;65.95;19.70;;;0.80;99.90;;;;;;5091617;28;20111;-51
2022/11/28 08:19:39;;;;;;;62.40;18.58;;;0.90;99.90;;;;;;5090039;28;20138;-51
2022/11/28 08:22:05;;;;;;;80.30;21.02;;;1.00;99.90;;;;;;5091315;28;20024;-53
2022/11/28 08:24:31;;;;;;;73.65;18.63;;;1.00;99.90;;;;;;5090024;28;20012;-50
2022/11/28 08:26:56;;;;;;;92.20;19.55;;;0.90;99.90;;;;;;5091227;28;20099;-52
2022/11/28 08:29:22;;;;;;;53.58;18.73;;;1.00;99.90;;;;;;5090865;28;20032;-49
2022/11/28 08:31:47;;;;;;;32.17;16.98;;;1.10;99.90;;;;;;5091018;28;20069;-50
2022/11/28 08:34:13;;;;;;;26.65;16.98;;;1.10;99.90;;;;;;5091204;28;20028;-50
2022/11/28 08:36:39;;;;;;;22.67;15.82;;;1.00;99.90;;;;;;5091055;28;20503;-50
2022/11/28 08:39:05;;;;;;;23.67;16.88;;;1.10;99.90;;;;;;5091128;28;20523;-50
2022/11/28 08:41:31;;;;;;;22.33;15.40;;;1.20;99.90;;;;;;5090986;28;20020;-50
2022/11/28 08:43:57;;;;;;;26.88;17.80;;;1.20;99.90;;;;;;5090952;28;20035;-50
2022/11/28 08:46:22;;;;;;;24.17;15.75;;;1.30;99.90;;;;;;5091088;28;20016;-51
2022/11/28 08:48:50;;;;;;;28.85;16.92;;;1.40;99.90;;;;;;5090931;28;20024;-49
2022/11/28 08:51:22;;;;;;;24.70;15.98;;;1.50;99.90;;;;;;5090993;28;20027;-50
2022/11/28 08:53:48;;;;;;;26.55;16.48;;;1.50;99.90;;;;;;5090761;28;20372;-49
2022/11/28 08:56:14;;;;;;;24.85;16.33;;;1.60;99.90;;;;;;5091077;28;20032;-51
2022/11/28 08:58:40;;;;;;;24.23;16.52;;;1.60;99.90;;;;;;5090839;28;20514;-49
2022/11/28 09:01:15;;;;;;;30.45;15.85;;;1.50;99.90;;;;;;5090769;28;20027;-49
2022/11/28 09:03:40;;;;;;;23.40;16.00;;;1.50;99.90;;;;;;5090801;28;20553;-50
2022/11/28 09:06:06;;;;;;;24.92;15.82;;;1.50;99.90;;;;;;5090661;28;20119;-51
2022/11/28 09:08:32;;;;;;;26.48;15.00;;;1.50;99.90;;;;;;5090464;28;20112;-49
2022/11/28 09:10:58;;;;;;;25.30;15.27;;;1.50;99.90;;;;;;5090719;28;20024;-49
2022/11/28 09:13:23;;;;;;;23.77;17.20;;;1.60;99.90;;;;;;5090605;28;20557;-52
2022/11/28 09:15:49;;;;;;;27.20;17.35;;;1.70;99.90;;;;;;5090572;28;20502;-50
2022/11/28 09:18:15;;;;;;;26.25;17.00;;;1.60;99.90;;;;;;5090516;28;20020;-49
2022/11/28 09:20:41;;;;;;;27.50;16.60;;;1.70;99.90;;;;;;5090533;28;20127;-51
2022/11/28 09:23:08;;;;;;;26.95;16.40;;;1.70;99.90;;;;;;5090422;28;20054;-49
2022/11/28 09:25:35;;;;;;;24.75;15.93;;;1.70;99.90;;;;;;5090529;28;20012;-51
2022/11/28 09:28:00;;;;;;;32.22;19.75;;;1.70;99.90;;;;;;5089798;28;20577;-50
2022/11/28 09:30:26;;;;;;;27.73;17.02;;;1.90;99.90;;;;;;5090386;28;20055;-49
2022/11/28 09:32:53;;;;;;;24.65;15.82;;;1.90;99.90;;;;;;5090490;28;20111;-49
2022/11/28 09:35:18;;;;;;;28.83;17.13;;;2.00;99.90;;;;;;5090171;28;20024;-51
2022/11/28 09:37:44;;;;;;;25.83;16.67;;;2.10;99.90;;;;;;5090051;28;20074;-49
2022/11/28 09:40:41;;;;;;;25.85;16.33;;;2.20;99.90;;;;;;5090383;28;20016;-50
2022/11/28 09:43:28;;;;;;;21.70;15.48;;;2.40;99.90;;;;;;5090345;28;20024;-50
2022/11/28 09:45:55;;;;;;;29.08;15.30;;;2.40;99.90;;;;;;5090147;28;20024;-51
2022/11/28 09:48:32;;;;;;;28.10;16.55;;;2.50;99.90;;;;;;5090132;28;20016;-51
2022/11/28 09:51:29;;;;;;;26.13;16.42;;;2.50;99.90;;;;;;5090161;28;20031;-52
2022/11/28 09:54:12;;;;;;;23.17;16.20;;;2.40;99.90;;;;;;5071547;28;20036;-50
2022/11/28 09:56:38;;;;;;;31.60;19.23;;;2.50;99.90;;;;;;5090021;28;20016;-50
2022/11/28 09:59:28;;;;;;;31.20;18.83;;;2.50;99.90;;;;;;5090036;28;20035;-50
2022/11/28 10:02:23;;;;;;;27.48;16.30;;;2.60;99.90;;;;;;5088289;28;20028;-50
2022/11/28 10:05:00;;;;;;;26.20;14.73;;;2.60;99.90;;;;;;5089827;28;20035;-51
2022/11/28 10:08:04;;;;;;;22.80;15.80;;;2.60;99.90;;;;;;5090371;28;20024;-50
2022/11/28 10:11:02;;;;;;;23.92;15.15;;;2.50;99.90;;;;;;5089982;28;20119;-50
2022/11/28 10:13:58;;;;;;;22.67;15.68;;;2.50;99.90;;;;;;5090096;28;20039;-51
2022/11/28 10:16:48;;;;;;;23.70;15.30;;;2.40;99.90;;;;;;5089875;28;20347;-51
2022/11/28 10:19:18;;;;;;;25.63;15.80;;;2.40;99.90;;;;;;5089775;28;20448;-49
2022/11/28 10:21:46;;;;;;;21.67;15.40;;;2.50;99.90;;;;;;5088494;28;20048;-50
2022/11/28 10:24:19;;;;;;;21.48;16.80;;;2.50;99.90;;;;;;5088576;28;20543;-52
2022/11/28 10:26:53;;;;;;;32.42;16.75;;;2.40;99.90;;;;;;5089892;28;20614;-52
2022/11/28 10:29:28;;;;;;;24.90;16.02;;;2.50;99.90;;;;;;5089838;28;20035;-49
2022/11/28 10:31:58;;;;;;;27.35;16.52;;;2.50;99.90;;;;;;5089631;28;20533;-51
2022/11/28 10:34:48;;;;;;;26.00;17.50;;;2.50;99.90;;;;;;5089726;28;20035;-50
2022/11/28 10:37:29;;;;;;;33.08;20.13;;;2.50;99.90;;;;;;5089598;28;20058;-50
2022/11/28 10:40:11;;;;;;;25.50;18.02;;;2.50;99.90;;;;;;5092154;28;20031;-50
2022/11/28 10:42:43;;;;;;;31.30;18.42;;;2.50;99.90;;;;;;5093522;28;20103;-50
2022/11/28 10:45:47;;;;;;;24.88;16.98;;;2.50;99.90;;;;;;5093399;28;20335;-50
2022/11/28 10:48:24;;;;;;;21.77;15.60;;;2.50;99.90;;;;;;5093276;28;20020;-49
2022/11/28 10:50:53;;;;;;;22.10;15.63;;;2.50;99.90;;;;;;5091946;28;20119;-51
2022/11/28 10:53:27;;;;;;;24.42;15.45;;;2.50;99.90;;;;;;5093180;28;20662;-49
2022/11/28 10:56:04;;;;;;;24.58;14.48;;;2.60;99.90;;;;;;5093125;28;20021;-50
2022/11/28 10:58:54;;;;;;;26.58;17.55;;;2.70;99.90;;;;;;5092950;28;20027;-50
2022/11/28 11:01:20;;;;;;;28.23;16.30;;;2.70;99.90;;;;;;5092229;28;20028;-49
2022/11/28 11:03:47;;;;;;;29.00;15.35;;;2.70;99.90;;;;;;5093304;28;20186;-49
2022/11/28 11:06:13;;;;;;;21.83;15.32;;;2.70;99.90;;;;;;5093562;28;20119;-51
2022/11/28 11:08:40;;;;;;;19.67;14.82;;;2.70;99.90;;;;;;5092517;28;20107;-50
2022/11/28 11:11:22;;;;;;;24.48;15.10;;;2.70;99.90;;;;;;5092791;28;20051;-51
2022/11/28 11:14:04;;;;;;;23.45;16.50;;;2.70;99.90;;;;;;5092293;28;20396;-50
2022/11/28 11:16:54;;;;;;;23.42;15.50;;;2.80;99.90;;;;;;5092340;28;20089;-52
2022/11/28 11:19:26;;;;;;;29.55;18.80;;;2.80;99.90;;;;;;5092633;28;20032;-49
2022/11/28 11:22:11;;;;;;;26.88;17.40;;;2.80;99.90;;;;;;5092563;28;20036;-50
2022/11/28 11:24:37;;;;;;;23.08;15.75;;;2.90;99.90;;;;;;5092600;28;20022;-50
2022/11/28 11:27:17;;;;;;;28.17;15.80;;;3.00;99.90;;;;;;5092540;28;20020;-49
2022/11/28 11:29:42;;;;;;;25.92;17.90;;;3.00;99.90;;;;;;5092540;28;20465;-50
2022/11/28 11:32:25;;;;;;;37.17;18.15;;;3.10;99.90;;;;;;5092346;28;20149;-51
2022/11/28 11:34:51;;;;;;;24.55;16.40;;;3.20;99.90;;;;;;5092479;28;20108;-50
2022/11/28 11:37:21;;;;;;;30.17;16.50;;;3.10;99.90;;;;;;5092226;28;20119;-51
2022/11/28 11:39:50;;;;;;;27.90;16.10;;;3.30;99.90;;;;;;5091063;28;20066;-51
2022/11/28 11:42:21;;;;;;;24.98;16.25;;;3.30;99.90;;;;;;5092261;28;20393;-51
2022/11/28 11:44:47;;;;;;;23.48;16.10;;;3.30;99.90;;;;;;5092061;28;20024;-49
2022/11/28 11:47:13;;;;;;;19.52;14.82;;;3.40;99.90;;;;;;5092145;28;20024;-49
2022/11/28 11:49:49;;;;;;;20.17;14.68;;;3.50;99.90;;;;;;5091667;28;20503;-50
2022/11/28 11:52:22;;;;;;;31.48;17.73;;;3.60;99.90;;;;;;5090846;28;20032;-49
2022/11/28 11:54:56;;;;;;;36.10;17.05;;;3.80;99.90;;;;;;5092034;28;20240;-51
2022/11/28 11:57:47;;;;;;;28.90;17.27;;;3.80;99.90;;;;;;5091894;28;20031;-52
2022/11/28 12:00:12;;;;;;;30.70;16.50;;;3.90;99.90;;;;;;5091842;28;20024;-50
2022/11/28 12:02:53;;;;;;;18.42;13.48;;;4.10;99.90;;;;;;5091765;28;20047;-51
2022/11/28 12:05:21;;;;;;;20.98;15.13;;;4.20;99.90;;;;;;5091837;28;20664;-50
2022/11/28 12:07:59;;;;;;;19.58;14.27;;;4.30;99.90;;;;;;5091571;28;20020;-50
2022/11/28 12:10:29;;;;;;;20.30;13.77;;;4.20;99.90;;;;;;5091853;28;20043;-50
2022/11/28 12:12:55;;;;;;;21.13;14.07;;;4.30;99.90;;;;;;5091621;28;20016;-50
2022/11/28 12:15:46;;;;;;;28.08;15.23;;;4.30;99.90;;;;;;5091395;28;20026;-50
2022/11/28 12:18:47;;;;;;;53.58;22.70;;;4.10;99.90;;;;;;5091503;28;20530;-49
2022/11/28 12:21:27;;;;;;;25.08;15.00;;;4.00;99.90;;;;;;5091350;28;20130;-51
2022/11/28 12:24:07;;;;;;;29.48;15.27;;;4.00;99.90;;;;;;5091457;28;20020;-51
2022/11/28 12:26:47;;;;;;;23.92;14.63;;;4.00;99.90;;;;;;5091278;28;20027;-50
2022/11/28 12:29:19;;;;;;;29.75;15.50;;;4.10;99.90;;;;;;5091498;28;20012;-51
2022/11/28 12:32:03;;;;;;;19.42;13.45;;;4.00;99.90;;;;;;5091191;28;20403;-52
2022/11/28 12:34:34;;;;;;;16.92;12.60;;;3.90;99.90;;;;;;5090954;28;20055;-50
2022/11/28 12:37:25;;;;;;;18.52;13.52;;;3.90;99.90;;;;;;5091146;28;20085;-49
2022/11/28 12:40:00;;;;;;;17.80;13.52;;;3.80;99.90;;;;;;5089830;28;20028;-51
2022/11/28 12:42:46;;;;;;;17.77;13.07;;;3.80;99.90;;;;;;5090958;28;20442;-50
2022/11/28 12:45:27;;;;;;;19.42;14.35;;;3.80;99.90;;;;;;5091017;28;20024;-50
2022/11/28 12:48:17;;;;;;;23.40;14.23;;;3.90;99.90;;;;;;5090919;28;20049;-51
2022/11/28 12:50:47;;;;;;;67.90;28.70;;;3.90;99.90;;;;;;5091016;28;20339;-52
2022/11/28 12:53:25;;;;;;;21.27;13.88;;;4.00;99.90;;;;;;5090877;28;20027;-51
2022/11/28 12:56:33;;;;;;;30.30;14.65;;;4.10;99.90;;;;;;5090737;28;20016;-50
2022/11/28 12:59:24;;;;;;;25.80;14.35;;;4.10;99.90;;;;;;5090620;28;20103;-50
2022/11/28 13:02:32;;;;;;;25.73;14.73;;;4.20;99.90;;;;;;5089703;28;20099;-51